createdAt,value
2019-04-22T00:02:28.519Z,11.23
2019-04-22T00:05:11.597Z,11.24
2019-04-22T00:07:56.800Z,11.26
2019-04-22T00:10:32.740Z,10.93
2019-04-22T00:13:27.599Z,11.01
2019-04-22T00:15:32.547Z,10.88
2019-04-22T00:18:14.044Z,10.92
2019-04-22T00:20:48.394Z,11.00
2019-04-22T00:23:12.821Z,11.11
2019-04-22T00:25:49.420Z,11.21
2019-04-22T00:28:22.611Z,11.40
2019-04-22T00:30:54.846Z,11.41
2019-04-22T00:33:26.678Z,11.32
2019-04-22T00:35:55.214Z,11.09
2019-04-22T00:38:31.518Z,10.99
2019-04-22T00:41:05.873Z,10.84
2019-04-22T00:43:45.813Z,10.84
2019-04-22T00:46:15.633Z,10.65
2019-04-22T00:48:48.647Z,10.75
2019-04-22T00:51:22.914Z,10.72
2019-04-22T00:53:48.095Z,10.71
2019-04-22T00:56:20.207Z,10.57
2019-04-22T00:58:50.302Z,10.65
2019-04-22T01:06:25.712Z,10.49
2019-04-22T01:11:44.597Z,10.13
2019-04-22T01:14:09.287Z,10.07
2019-04-22T01:16:42.929Z,10.17
2019-04-22T01:19:16.664Z,9.88
2019-04-22T01:21:46.133Z,9.74
2019-04-22T01:24:16.786Z,9.72
2019-04-22T01:26:50.533Z,9.58
2019-04-22T01:29:21.603Z,9.45
2019-04-22T01:31:41.798Z,9.56
2019-04-22T01:34:32.171Z,9.60
2019-04-22T01:37:09.894Z,9.40
2019-04-22T01:39:45.527Z,9.35
2019-04-22T01:42:16.821Z,9.41
2019-04-22T01:45:06.970Z,9.37
2019-04-22T01:47:26.649Z,9.32
2019-04-22T01:49:55.517Z,9.45
2019-04-22T01:52:31.403Z,9.51
2019-04-22T01:55:07.328Z,9.62
2019-04-22T01:57:38.522Z,9.74
2019-04-22T02:00:00.843Z,9.50
2019-04-22T02:02:42.354Z,9.63
2019-04-22T02:05:19.120Z,9.93
2019-04-22T02:07:42.125Z,10.07
2019-04-22T02:10:26.927Z,9.83
2019-04-22T02:12:53.216Z,9.70
2019-04-22T02:15:24.007Z,9.50
2019-04-22T02:18:04.366Z,9.55
2019-04-22T02:20:29.603Z,9.42
2019-04-22T02:26:02.034Z,9.54
2019-04-22T02:38:59.458Z,10.14
2019-04-22T02:41:26.604Z,9.96
2019-04-22T03:04:12.251Z,9.48
2019-04-22T03:09:20.658Z,9.44
2019-04-22T03:12:00.914Z,9.62
2019-04-22T03:14:37.942Z,9.71
2019-04-22T03:17:11.406Z,9.72
2019-04-22T03:19:43.368Z,9.62
2019-04-22T03:27:02.806Z,9.36
2019-04-22T03:30:22.149Z,9.44
2019-04-22T03:32:59.325Z,9.38
2019-04-22T03:37:48.154Z,9.01
2019-04-22T03:42:52.008Z,8.64
2019-04-22T03:47:54.046Z,8.27
2019-04-22T03:50:24.333Z,8.50
2019-04-22T03:52:56.427Z,8.59
2019-04-22T04:05:41.642Z,8.68
2019-04-22T04:08:22.059Z,8.89
2019-04-22T04:10:39.719Z,9.15
2019-04-22T04:15:42.658Z,9.08
2019-04-22T04:18:29.618Z,8.99
2019-04-22T04:21:09.124Z,9.13
2019-04-22T04:23:30.855Z,9.15
2019-04-22T04:26:00.893Z,9.08
2019-04-22T04:31:05.854Z,9.01
2019-04-22T04:33:43.879Z,9.00
2019-04-22T04:36:11.600Z,8.80
2019-04-22T04:46:30.628Z,8.73
2019-04-22T04:53:58.293Z,8.89
2019-04-22T04:56:33.287Z,9.03
2019-04-22T04:59:05.618Z,8.79
2019-04-22T05:01:30.837Z,9.07
2019-04-22T05:04:04.382Z,9.07
2019-04-22T05:11:49.364Z,8.80
2019-04-22T05:14:14.441Z,9.04
2019-04-22T05:16:51.537Z,8.93
2019-04-22T05:19:15.939Z,8.81
2019-04-22T05:21:50.171Z,8.59
2019-04-22T05:24:38.391Z,8.41
2019-04-22T05:26:52.372Z,8.43
2019-04-22T05:29:23.468Z,8.61
2019-04-22T05:31:57.046Z,8.63
2019-04-22T05:34:26.124Z,8.73
2019-04-22T05:36:53.932Z,8.84
2019-04-22T05:39:21.301Z,8.89
2019-04-22T05:42:03.896Z,9.05
2019-04-22T05:44:37.382Z,9.27
2019-04-22T05:47:08.576Z,9.30
2019-04-22T05:49:35.082Z,9.27
2019-04-22T05:52:12.626Z,9.47
2019-04-22T05:54:38.623Z,9.75
2019-04-22T05:57:17.923Z,9.75
2019-04-22T06:04:52.058Z,10.44
2019-04-22T06:07:22.865Z,10.65
2019-04-22T06:10:03.002Z,10.60
2019-04-22T06:12:29.744Z,11.45
2019-04-22T06:15:03.517Z,13.73
2019-04-22T06:17:38.964Z,16.51
2019-04-22T06:20:13.719Z,16.96
2019-04-22T06:25:20.498Z,18.39
2019-04-22T06:27:52.460Z,19.34
2019-04-22T06:30:23.325Z,20.41
2019-04-22T06:32:53.893Z,20.66
2019-04-22T06:35:31.140Z,20.01
2019-04-22T06:38:19.173Z,19.36
2019-04-22T06:40:31.750Z,19.17
2019-04-22T06:45:35.332Z,19.89
2019-04-22T06:48:12.848Z,19.02
2019-04-22T06:50:43.524Z,18.19
2019-04-22T06:53:17.449Z,17.74
2019-04-22T06:55:45.910Z,16.36
2019-04-22T06:58:36.906Z,15.70
2019-04-22T07:01:09.553Z,15.85
2019-04-22T07:05:57.725Z,17.81
2019-04-22T07:09:00.329Z,18.63
2019-04-22T07:10:56.384Z,18.04
2019-04-22T07:13:43.866Z,18.31
2019-04-22T07:16:05.231Z,19.11
2019-04-22T07:21:06.725Z,18.83
2019-04-22T07:23:51.064Z,17.22
2019-04-22T07:26:16.218Z,17.83
2019-04-22T07:28:50.652Z,18.02
2019-04-22T07:31:20.649Z,18.24
2019-04-22T07:33:51.766Z,18.32
2019-04-22T07:36:45.922Z,18.64
2019-04-22T07:39:01.974Z,18.85
2019-04-22T07:41:34.662Z,18.24
2019-04-22T07:44:13.408Z,17.52
2019-04-22T07:46:33.732Z,17.97
2019-04-22T07:49:10.523Z,16.91
2019-04-22T07:51:36.884Z,16.32
2019-04-22T07:54:18.175Z,16.79
2019-04-22T07:56:48.647Z,15.76
2019-04-22T07:59:18.703Z,15.86
2019-04-22T08:02:04.732Z,15.61
2019-04-22T08:04:35.914Z,16.23
2019-04-22T08:06:57.121Z,17.33
2019-04-22T08:09:30.862Z,17.46
2019-04-22T08:11:57.884Z,17.45
2019-04-22T08:14:34.471Z,16.71
2019-04-22T08:17:21.298Z,16.33
2019-04-22T08:19:42.015Z,15.63
2019-04-22T08:22:11.866Z,14.81
2019-04-22T08:27:15.497Z,14.60
2019-04-22T08:30:02.103Z,14.12
2019-04-22T08:32:21.745Z,14.51
2019-04-22T08:35:02.145Z,14.22
2019-04-22T08:40:03.544Z,14.07
2019-04-22T08:42:45.156Z,14.42
2019-04-22T08:45:10.658Z,13.74
2019-04-22T08:47:36.607Z,13.50
2019-04-22T08:52:41.197Z,14.05
2019-04-22T08:55:19.398Z,13.57
2019-04-22T09:00:20.338Z,12.98
2019-04-22T09:02:54.055Z,13.09
2019-04-22T09:05:43.525Z,12.92
2019-04-22T09:08:05.981Z,12.87
2019-04-22T09:10:37.766Z,12.89
2019-04-22T09:13:05.831Z,13.06
2019-04-22T09:15:43.681Z,13.06
2019-04-22T09:18:14.529Z,13.12
2019-04-22T09:20:49.654Z,13.64
2019-04-22T09:25:51.067Z,13.60
2019-04-22T09:28:24.625Z,13.67
2019-04-22T09:31:01.935Z,13.77
2019-04-22T09:33:32.215Z,14.19
2019-04-22T09:36:09.363Z,13.66
2019-04-22T09:38:39.544Z,14.12
2019-04-22T09:41:10.418Z,13.84
2019-04-22T09:43:47.112Z,14.40
2019-04-22T09:46:14.838Z,14.01
2019-04-22T09:51:12.329Z,14.68
2019-04-22T09:53:54.877Z,15.23
2019-04-22T09:56:23.973Z,14.50
2019-04-22T09:58:55.698Z,14.67
2019-04-22T10:01:50.424Z,15.33
2019-04-22T10:04:00.933Z,15.57
2019-04-22T10:06:33.335Z,15.95
2019-04-22T10:09:26.277Z,16.56
2019-04-22T10:11:47.696Z,16.06
2019-04-22T10:14:16.972Z,15.45
2019-04-22T10:16:50.694Z,16.23
2019-04-22T10:19:18.754Z,16.43
2019-04-22T10:21:50.011Z,16.53
2019-04-22T10:24:19.130Z,15.45
2019-04-22T10:26:55.375Z,15.51
2019-04-22T10:29:24.919Z,15.40
2019-04-22T10:34:16.886Z,15.81
2019-04-22T10:36:44.080Z,15.90
2019-04-22T10:39:12.784Z,16.12
2019-04-22T10:41:44.290Z,16.51
2019-04-22T10:44:15.330Z,16.02
2019-04-22T10:46:46.376Z,15.56
2019-04-22T10:49:18.220Z,15.57
2019-04-22T10:51:48.935Z,15.64
2019-04-22T10:54:19.816Z,15.74
2019-04-22T10:56:50.882Z,15.46
2019-04-22T10:59:22.671Z,16.05
2019-04-22T11:01:54.817Z,16.05
2019-04-22T11:04:27.955Z,15.84
2019-04-22T11:07:03.809Z,16.23
2019-04-22T11:09:52.065Z,16.41
2019-04-22T11:12:17.642Z,16.52
2019-04-22T11:14:45.610Z,16.61
2019-04-22T11:17:17.695Z,16.11
2019-04-22T11:19:49.854Z,16.17
2019-04-22T11:22:24.495Z,16.68
2019-04-22T11:24:53.883Z,16.89
2019-04-22T11:27:25.431Z,16.01
2019-04-22T11:29:57.413Z,16.59
2019-04-22T11:32:28.616Z,16.81
2019-04-22T11:34:59.390Z,17.25
2019-04-22T11:37:30.380Z,17.04
2019-04-22T11:40:11.395Z,16.65
2019-04-22T11:42:34.322Z,16.18
2019-04-22T11:45:05.879Z,16.11
2019-04-22T11:47:37.341Z,16.15
2019-04-22T11:50:10.329Z,16.90
2019-04-22T11:52:44.650Z,16.75
2019-04-22T11:55:16.914Z,16.93
2019-04-22T11:57:47.940Z,17.41
2019-04-22T12:00:22.826Z,17.83
2019-04-22T12:02:54.745Z,17.15
2019-04-22T12:05:26.020Z,17.20
2019-04-22T12:07:57.263Z,17.13
2019-04-22T12:10:36.965Z,17.52
2019-04-22T12:13:02.051Z,17.47
2019-04-22T12:15:35.185Z,17.81
2019-04-22T12:18:07.061Z,18.16
2019-04-22T12:20:39.224Z,17.75
2019-04-22T12:23:11.196Z,17.80
2019-04-22T12:25:52.566Z,17.35
2019-04-22T12:28:17.103Z,17.24
2019-04-22T12:30:47.993Z,17.09
2019-04-22T12:33:19.169Z,17.26
2019-04-22T12:35:50.592Z,17.22
2019-04-22T12:38:22.180Z,17.15
2019-04-22T12:40:57.404Z,17.38
2019-04-22T12:43:29.821Z,17.72
2019-04-22T12:46:02.337Z,17.98
2019-04-22T12:48:33.063Z,18.09
2019-04-22T12:51:04.999Z,17.77
2019-04-22T12:53:36.163Z,17.27
2019-04-22T12:56:07.099Z,17.23
2019-04-22T12:58:38.079Z,17.06
2019-04-22T13:01:08.984Z,17.52
2019-04-22T13:03:40.241Z,17.57
2019-04-22T13:06:12.006Z,17.76
2019-04-22T13:08:43.581Z,17.76
2019-04-22T13:11:17.928Z,18.07
2019-04-22T13:13:47.089Z,18.22
2019-04-22T13:16:17.745Z,18.49
2019-04-22T13:18:55.673Z,18.54
2019-04-22T13:21:20.779Z,17.66
2019-04-22T13:23:52.898Z,17.19
2019-04-22T13:26:25.426Z,17.15
2019-04-22T13:28:59.046Z,17.18
2019-04-22T13:31:33.040Z,17.43
2019-04-22T13:34:04.193Z,17.59
2019-04-22T13:36:36.658Z,17.35
2019-04-22T13:39:09.089Z,17.42
2019-04-22T13:41:48.785Z,17.24
2019-04-22T13:44:12.897Z,17.05
2019-04-22T13:47:04.132Z,17.27
2019-04-22T13:49:54.126Z,17.56
2019-04-22T13:52:29.995Z,17.97
2019-04-22T13:57:14.799Z,17.63
2019-04-22T13:59:36.603Z,17.83
2019-04-22T14:02:12.778Z,17.94
2019-04-22T14:04:46.325Z,17.83
2019-04-22T14:07:17.096Z,17.64
2019-04-22T14:09:48.651Z,17.47
2019-04-22T14:12:21.300Z,17.53
2019-04-22T14:14:52.624Z,17.97
2019-04-22T14:17:24.958Z,18.15
2019-04-22T14:19:56.871Z,18.16
2019-04-22T14:22:28.325Z,17.93
2019-04-22T14:24:59.004Z,17.57
2019-04-22T14:27:41.905Z,17.44
2019-04-22T14:30:03.057Z,17.72
2019-04-22T14:32:36.539Z,17.90
2019-04-22T14:35:11.222Z,17.96
2019-04-22T14:37:42.450Z,17.98
2019-04-22T14:40:16.071Z,18.14
2019-04-22T14:43:10.171Z,18.02
2019-04-22T14:45:52.166Z,18.15
2019-04-22T14:48:24.773Z,18.05
2019-04-22T14:50:45.194Z,18.25
2019-04-22T14:53:21.722Z,17.90
2019-04-22T14:55:34.415Z,17.71
2019-04-22T14:58:04.765Z,17.68
2019-04-22T15:00:35.870Z,17.87
2019-04-22T15:03:07.926Z,17.98
2019-04-22T15:05:40.055Z,18.21
2019-04-22T15:08:11.020Z,18.07
2019-04-22T15:10:43.972Z,18.26
2019-04-22T15:13:15.573Z,18.33
2019-04-22T15:15:52.911Z,18.12
2019-04-22T15:18:26.028Z,18.00
2019-04-22T15:21:02.624Z,17.97
2019-04-22T15:23:33.270Z,18.04
2019-04-22T15:26:06.530Z,18.04
2019-04-22T15:28:37.551Z,18.11
2019-04-22T15:31:09.144Z,18.10
2019-04-22T15:33:48.013Z,18.32
2019-04-22T15:36:15.209Z,18.21
2019-04-22T15:38:47.273Z,18.35
2019-04-22T15:41:18.771Z,18.48
2019-04-22T15:43:49.866Z,18.58
2019-04-22T15:46:20.450Z,18.60
2019-04-22T15:48:51.831Z,18.34
2019-04-22T15:51:22.697Z,17.98
2019-04-22T15:53:53.940Z,17.81
2019-04-22T15:56:26.381Z,17.63
2019-04-22T15:58:57.769Z,17.57
2019-04-22T16:01:33.672Z,17.57
2019-04-22T16:04:00.832Z,17.58
2019-04-22T16:06:31.951Z,17.70
2019-04-22T16:09:02.816Z,17.69
2019-04-22T16:11:36.109Z,17.75
2019-04-22T16:14:06.881Z,17.69
2019-04-22T16:16:39.035Z,17.74
2019-04-22T16:19:12.087Z,17.75
2019-04-22T16:21:53.673Z,17.78
2019-04-22T16:24:20.228Z,17.83
2019-04-22T16:26:53.873Z,17.93
2019-04-22T16:29:25.178Z,17.98
2019-04-22T16:31:55.796Z,18.11
2019-04-22T16:34:27.170Z,17.97
2019-04-22T16:36:58.619Z,17.82
2019-04-22T16:39:29.349Z,17.80
2019-04-22T16:42:00.609Z,17.76
2019-04-22T16:44:32.424Z,17.70
2019-04-22T16:47:03.677Z,17.63
2019-04-22T16:49:34.446Z,17.53
2019-04-22T16:52:05.766Z,17.50
2019-04-22T16:54:36.902Z,17.39
2019-04-22T16:57:08.151Z,17.35
2019-04-22T16:59:38.741Z,17.31
2019-04-22T17:02:24.677Z,17.27
2019-04-22T17:05:00.109Z,17.25
2019-04-22T17:07:31.917Z,17.23
2019-04-22T17:10:08.224Z,17.17
2019-04-22T17:12:48.767Z,17.22
2019-04-22T17:15:14.316Z,17.20
2019-04-22T17:17:45.292Z,17.13
2019-04-22T17:20:17.555Z,17.04
2019-04-22T17:22:49.403Z,17.03
2019-04-22T17:25:22.496Z,16.96
2019-04-22T17:27:53.126Z,16.90
2019-04-22T17:30:26.423Z,16.85
2019-04-22T17:32:58.732Z,16.72
2019-04-22T17:35:30.100Z,16.73
2019-04-22T17:38:14.263Z,16.62
2019-04-22T17:40:51.245Z,16.57
2019-04-22T17:43:37.782Z,16.49
2019-04-22T17:46:00.173Z,16.46
2019-04-22T17:48:57.418Z,16.44
2019-04-22T17:51:49.965Z,16.38
2019-04-22T17:54:02.865Z,16.36
2019-04-22T17:56:39.146Z,16.28
2019-04-22T17:59:10.408Z,16.24
2019-04-22T18:01:39.842Z,16.20
2019-04-22T18:03:57.851Z,16.12
2019-04-22T18:06:56.574Z,16.06
2019-04-22T18:09:19.493Z,16.02
2019-04-22T18:11:54.090Z,15.99
2019-04-22T18:17:03.638Z,15.89
2019-04-22T18:19:26.214Z,15.80
2019-04-22T18:21:57.191Z,15.89
2019-04-22T18:24:24.276Z,15.79
2019-04-22T18:27:18.938Z,15.77
2019-04-22T18:29:41.799Z,15.74
2019-04-22T18:32:10.039Z,15.69
2019-04-22T18:34:44.396Z,15.68
2019-04-22T18:37:16.601Z,15.66
2019-04-22T18:39:56.955Z,15.60
2019-04-22T18:42:23.870Z,15.52
2019-04-22T18:45:19.909Z,15.47
2019-04-22T18:47:32.239Z,15.41
2019-04-22T18:50:03.495Z,15.39
2019-04-22T18:52:49.155Z,15.37
2019-04-22T18:55:33.262Z,15.31
2019-04-22T18:58:13.312Z,15.24
2019-04-22T19:00:36.221Z,15.20
2019-04-22T19:03:16.477Z,15.08
2019-04-22T19:06:03.639Z,15.04
2019-04-22T19:08:36.685Z,14.97
2019-04-22T19:14:01.107Z,14.87
2019-04-22T19:16:25.798Z,14.76
2019-04-22T19:19:05.854Z,14.73
2019-04-22T19:21:19.776Z,14.78
2019-04-22T19:23:53.976Z,14.74
2019-04-22T19:26:38.423Z,14.70
2019-04-22T19:29:00.379Z,14.62
2019-04-22T19:31:34.559Z,14.62
2019-04-22T19:34:09.355Z,14.58
2019-04-22T19:36:46.926Z,14.62
2019-04-22T19:39:13.204Z,14.60
2019-04-22T19:41:53.645Z,14.56
2019-04-22T19:44:27.531Z,14.54
2019-04-22T19:47:14.455Z,14.51
2019-04-22T19:52:06.087Z,14.54
2019-04-22T19:54:38.980Z,14.49
2019-04-22T19:57:00.183Z,14.51
2019-04-22T19:59:45.450Z,14.44
2019-04-22T20:02:41.124Z,14.40
2019-04-22T20:05:37.443Z,14.40
2019-04-22T20:08:07.317Z,14.39
2019-04-22T20:10:39.889Z,14.35
2019-04-22T20:13:11.088Z,14.29
2019-04-22T20:15:34.540Z,14.25
2019-04-22T20:18:35.658Z,14.17
2019-04-22T20:20:51.250Z,14.15
2019-04-22T20:23:15.104Z,14.11
2019-04-22T20:25:44.711Z,14.07
2019-04-22T20:28:24.138Z,14.11
2019-04-22T20:30:55.453Z,14.04
2019-04-22T20:33:33.249Z,14.14
2019-04-22T20:36:03.819Z,14.15
2019-04-22T20:38:30.997Z,14.04
2019-04-22T20:41:02.417Z,14.10
2019-04-22T20:43:49.574Z,14.02
2019-04-22T20:46:15.180Z,14.00
2019-04-22T20:48:50.289Z,14.04
2019-04-22T20:51:24.332Z,14.07
2019-04-22T20:53:56.516Z,13.94
2019-04-22T20:56:18.782Z,13.91
2019-04-22T20:58:56.023Z,13.86
2019-04-22T21:01:28.401Z,13.85
2019-04-22T21:03:47.633Z,13.77
2019-04-22T21:06:33.360Z,13.78
2019-04-22T21:09:08.894Z,13.70
2019-04-22T21:11:34.099Z,13.72
2019-04-22T21:16:44.471Z,13.70
2019-04-22T21:19:22.678Z,13.72
2019-04-22T21:21:49.978Z,13.69
2019-04-22T21:24:21.446Z,13.63
2019-04-22T21:26:51.370Z,13.75
2019-04-22T21:29:20.784Z,13.68
2019-04-22T21:31:57.855Z,13.69
2019-04-22T21:34:23.328Z,13.56
2019-04-22T21:37:12.236Z,13.62
2019-04-22T21:39:30.238Z,13.56
2019-04-22T21:42:09.384Z,13.55
2019-04-22T21:44:38.345Z,13.59
2019-04-22T21:47:14.526Z,13.45
2019-04-22T21:49:56.697Z,13.47
2019-04-22T21:52:17.068Z,13.42
2019-04-22T21:54:51.757Z,13.52
2019-04-22T21:57:27.779Z,13.45
2019-04-22T21:59:57.948Z,13.49
2019-04-22T22:02:43.870Z,13.48
2019-04-22T22:05:00.129Z,13.44
2019-04-22T22:07:24.636Z,13.35
2019-04-22T22:10:12.388Z,13.30
2019-04-22T22:12:44.109Z,13.30
2019-04-22T22:15:17.243Z,13.33
2019-04-22T22:17:48.692Z,13.30
2019-04-22T22:20:14.689Z,13.28
2019-04-22T22:23:03.704Z,13.26
2019-04-22T22:25:23.643Z,13.31
2019-04-22T22:27:59.865Z,13.26
2019-04-22T22:30:48.487Z,13.27
2019-04-22T22:33:05.732Z,13.29
2019-04-22T22:35:35.940Z,13.28
2019-04-22T22:38:08.785Z,13.12
2019-04-22T22:40:26.322Z,13.15
2019-04-22T22:42:55.868Z,13.08
2019-04-22T22:45:34.839Z,13.03
2019-04-22T22:50:50.835Z,12.98
2019-04-22T22:55:59.305Z,12.95
2019-04-22T22:58:27.771Z,12.80
2019-04-22T23:01:00.887Z,12.73
2019-04-22T23:06:17.029Z,12.85
2019-04-22T23:08:38.619Z,12.77
2019-04-22T23:11:11.806Z,12.76
2019-04-22T23:13:44.246Z,12.81
2019-04-22T23:16:08.889Z,12.70
2019-04-22T23:18:30.028Z,12.67
2019-04-22T23:21:01.439Z,12.64
2019-04-22T23:23:52.985Z,12.55
2019-04-22T23:26:40.455Z,12.66
2019-04-22T23:29:07.215Z,12.59
2019-04-22T23:31:37.194Z,12.57
2019-04-22T23:34:26.596Z,12.57
2019-04-22T23:37:18.756Z,12.48
2019-04-22T23:40:02.190Z,12.46
2019-04-22T23:42:28.503Z,12.44
2019-04-22T23:45:02.113Z,12.52
2019-04-22T23:47:26.401Z,12.42
2019-04-22T23:50:06.033Z,12.38
2019-04-22T23:52:43.588Z,12.34
2019-04-22T23:55:17.852Z,12.33
2019-04-22T23:57:46.930Z,12.21
